sensor_id;sensor_type;location;lat;lon;timestamp;temperature;humidity
69776;DHT22;57049;51.450;-2.516;2023-07-29T00:00:31;15.79;94.33
69776;DHT22;57049;51.450;-2.516;2023-07-29T00:02:59;15.79;94.33
69776;DHT22;57049;51.450;-2.516;2023-07-29T00:05:24;15.75;94.34
69776;DHT22;57049;51.450;-2.516;2023-07-29T00:07:50;15.70;94.37
69776;DHT22;57049;51.450;-2.516;2023-07-29T00:10:16;15.73;94.38
69776;DHT22;57049;51.450;-2.516;2023-07-29T00:12:41;15.75;94.00
69776;DHT22;57049;51.450;-2.516;2023-07-29T00:15:07;15.78;94.11
69776;DHT22;57049;51.450;-2.516;2023-07-29T00:17:33;15.81;93.93
69776;DHT22;57049;51.450;-2.516;2023-07-29T00:20:00;15.72;94.23
69776;DHT22;57049;51.450;-2.516;2023-07-29T00:22:26;15.69;94.11
69776;DHT22;57049;51.450;-2.516;2023-07-29T00:24:52;15.67;94.18
69776;DHT22;57049;51.450;-2.516;2023-07-29T00:27:23;15.62;94.41
69776;DHT22;57049;51.450;-2.516;2023-07-29T00:29:48;15.69;94.22
69776;DHT22;57049;51.450;-2.516;2023-07-29T00:32:14;15.67;94.00
69776;DHT22;57049;51.450;-2.516;2023-07-29T00:34:39;15.66;94.04
69776;DHT22;57049;51.450;-2.516;2023-07-29T00:37:05;15.62;94.16
69776;DHT22;57049;51.450;-2.516;2023-07-29T00:39:31;15.59;94.27
69776;DHT22;57049;51.450;-2.516;2023-07-29T00:41:57;15.59;94.21
69776;DHT22;57049;51.450;-2.516;2023-07-29T00:44:23;15.59;94.21
69776;DHT22;57049;51.450;-2.516;2023-07-29T00:46:50;15.61;93.85
69776;DHT22;57049;51.450;-2.516;2023-07-29T00:49:17;15.62;94.03
69776;DHT22;57049;51.450;-2.516;2023-07-29T00:51:43;15.61;94.04
69776;DHT22;57049;51.450;-2.516;2023-07-29T00:54:08;15.59;94.03
69776;DHT22;57049;51.450;-2.516;2023-07-29T00:56:34;15.55;94.23
69776;DHT22;57049;51.450;-2.516;2023-07-29T00:59:01;15.61;94.14
69776;DHT22;57049;51.450;-2.516;2023-07-29T01:01:28;15.58;94.31
69776;DHT22;57049;51.450;-2.516;2023-07-29T01:03:54;15.56;94.43
69776;DHT22;57049;51.450;-2.516;2023-07-29T01:17:47;15.54;94.94
69776;DHT22;57049;51.450;-2.516;2023-07-29T01:20:16;15.56;94.86
69776;DHT22;57049;51.450;-2.516;2023-07-29T01:22:43;15.62;94.77
69776;DHT22;57049;51.450;-2.516;2023-07-29T01:25:09;15.61;94.72
69776;DHT22;57049;51.450;-2.516;2023-07-29T01:27:34;15.56;94.91
69776;DHT22;57049;51.450;-2.516;2023-07-29T01:30:03;15.59;94.68
69776;DHT22;57049;51.450;-2.516;2023-07-29T01:32:51;15.58;94.88
69776;DHT22;57049;51.450;-2.516;2023-07-29T01:37:51;15.56;94.90
69776;DHT22;57049;51.450;-2.516;2023-07-29T01:40:17;15.56;94.73
69776;DHT22;57049;51.450;-2.516;2023-07-29T01:42:43;15.54;94.90
69776;DHT22;57049;51.450;-2.516;2023-07-29T01:45:11;15.51;94.94
69776;DHT22;57049;51.450;-2.516;2023-07-29T01:47:36;15.45;94.94
69776;DHT22;57049;51.450;-2.516;2023-07-29T01:50:03;15.56;94.59
69776;DHT22;57049;51.450;-2.516;2023-07-29T01:52:29;15.51;94.37
69776;DHT22;57049;51.450;-2.516;2023-07-29T01:54:54;15.51;94.48
69776;DHT22;57049;51.450;-2.516;2023-07-29T01:57:20;15.48;94.19
69776;DHT22;57049;51.450;-2.516;2023-07-29T01:59:45;15.51;94.13
69776;DHT22;57049;51.450;-2.516;2023-07-29T02:02:11;15.49;94.00
69776;DHT22;57049;51.450;-2.516;2023-07-29T02:04:37;15.45;94.04
69776;DHT22;57049;51.450;-2.516;2023-07-29T02:07:02;15.41;93.63
69776;DHT22;57049;51.450;-2.516;2023-07-29T02:09:27;15.36;93.86
69776;DHT22;57049;51.450;-2.516;2023-07-29T02:11:53;15.34;93.73
69776;DHT22;57049;51.450;-2.516;2023-07-29T02:14:19;15.31;93.73
69776;DHT22;57049;51.450;-2.516;2023-07-29T02:16:44;15.24;93.71
69776;DHT22;57049;51.450;-2.516;2023-07-29T02:19:10;15.21;93.51
69776;DHT22;57049;51.450;-2.516;2023-07-29T02:21:35;15.24;93.40
69776;DHT22;57049;51.450;-2.516;2023-07-29T02:24:01;15.20;93.48
69776;DHT22;57049;51.450;-2.516;2023-07-29T02:26:26;15.15;93.56
69776;DHT22;57049;51.450;-2.516;2023-07-29T02:28:51;15.15;93.62
69776;DHT22;57049;51.450;-2.516;2023-07-29T02:31:22;15.14;93.57
69776;DHT22;57049;51.450;-2.516;2023-07-29T02:33:48;15.12;93.53
69776;DHT22;57049;51.450;-2.516;2023-07-29T02:36:15;15.12;93.52
69776;DHT22;57049;51.450;-2.516;2023-07-29T02:38:41;15.12;93.65
69776;DHT22;57049;51.450;-2.516;2023-07-29T02:41:07;15.20;93.37
69776;DHT22;57049;51.450;-2.516;2023-07-29T02:43:38;15.18;93.62
69776;DHT22;57049;51.450;-2.516;2023-07-29T02:46:03;15.15;93.68
69776;DHT22;57049;51.450;-2.516;2023-07-29T02:48:29;15.15;93.76
69776;DHT22;57049;51.450;-2.516;2023-07-29T02:50:55;15.11;93.81
69776;DHT22;57049;51.450;-2.516;2023-07-29T02:53:22;15.08;93.77
69776;DHT22;57049;51.450;-2.516;2023-07-29T02:55:48;15.04;93.69
69776;DHT22;57049;51.450;-2.516;2023-07-29T02:58:14;14.98;93.97
69776;DHT22;57049;51.450;-2.516;2023-07-29T03:00:39;15.05;93.77
69776;DHT22;57049;51.450;-2.516;2023-07-29T03:03:07;15.01;94.02
69776;DHT22;57049;51.450;-2.516;2023-07-29T03:05:33;14.95;94.19
69776;DHT22;57049;51.450;-2.516;2023-07-29T03:07:59;14.95;94.26
69776;DHT22;57049;51.450;-2.516;2023-07-29T03:10:24;14.91;94.75
69776;DHT22;57049;51.450;-2.516;2023-07-29T03:12:50;14.88;94.73
69776;DHT22;57049;51.450;-2.516;2023-07-29T03:15:16;14.83;95.03
69776;DHT22;57049;51.450;-2.516;2023-07-29T03:17:41;14.83;95.42
69776;DHT22;57049;51.450;-2.516;2023-07-29T03:20:07;14.83;95.25
69776;DHT22;57049;51.450;-2.516;2023-07-29T03:22:33;14.84;95.29
69776;DHT22;57049;51.450;-2.516;2023-07-29T03:24:58;14.87;95.28
69776;DHT22;57049;51.450;-2.516;2023-07-29T03:27:24;14.90;95.13
69776;DHT22;57049;51.450;-2.516;2023-07-29T03:29:49;14.91;95.04
69776;DHT22;57049;51.450;-2.516;2023-07-29T03:32:14;14.93;95.02
69776;DHT22;57049;51.450;-2.516;2023-07-29T03:34:40;14.90;95.05
69776;DHT22;57049;51.450;-2.516;2023-07-29T03:37:06;14.80;95.31
69776;DHT22;57049;51.450;-2.516;2023-07-29T03:39:31;14.73;95.55
69776;DHT22;57049;51.450;-2.516;2023-07-29T03:41:57;14.70;95.74
69776;DHT22;57049;51.450;-2.516;2023-07-29T03:44:23;14.67;95.61
69776;DHT22;57049;51.450;-2.516;2023-07-29T03:46:48;14.77;95.39
69776;DHT22;57049;51.450;-2.516;2023-07-29T03:49:14;14.74;95.63
69776;DHT22;57049;51.450;-2.516;2023-07-29T03:51:39;14.79;95.77
69776;DHT22;57049;51.450;-2.516;2023-07-29T03:54:05;14.85;95.48
69776;DHT22;57049;51.450;-2.516;2023-07-29T03:56:31;14.94;95.25
69776;DHT22;57049;51.450;-2.516;2023-07-29T03:59:04;14.93;95.39
69776;DHT22;57049;51.450;-2.516;2023-07-29T04:01:30;14.91;95.43
69776;DHT22;57049;51.450;-2.516;2023-07-29T04:03:55;14.93;95.41
69776;DHT22;57049;51.450;-2.516;2023-07-29T04:06:21;14.93;95.39
69776;DHT22;57049;51.450;-2.516;2023-07-29T04:08:48;14.97;95.47
69776;DHT22;57049;51.450;-2.516;2023-07-29T04:11:13;14.97;95.41
69776;DHT22;57049;51.450;-2.516;2023-07-29T04:13:39;15.01;95.35
69776;DHT22;57049;51.450;-2.516;2023-07-29T04:16:05;15.03;95.20
69776;DHT22;57049;51.450;-2.516;2023-07-29T04:18:30;15.05;94.94
69776;DHT22;57049;51.450;-2.516;2023-07-29T04:20:56;15.04;95.06
69776;DHT22;57049;51.450;-2.516;2023-07-29T04:23:21;15.01;95.16
69776;DHT22;57049;51.450;-2.516;2023-07-29T04:25:47;15.05;95.14
69776;DHT22;57049;51.450;-2.516;2023-07-29T04:28:12;15.03;95.18
69776;DHT22;57049;51.450;-2.516;2023-07-29T04:30:38;15.05;95.26
69776;DHT22;57049;51.450;-2.516;2023-07-29T04:33:03;15.04;95.27
69776;DHT22;57049;51.450;-2.516;2023-07-29T04:35:29;15.04;95.34
69776;DHT22;57049;51.450;-2.516;2023-07-29T04:37:54;15.05;95.30
69776;DHT22;57049;51.450;-2.516;2023-07-29T04:40:20;15.05;95.21
69776;DHT22;57049;51.450;-2.516;2023-07-29T04:42:45;15.07;95.33
69776;DHT22;57049;51.450;-2.516;2023-07-29T04:45:11;15.07;95.39
69776;DHT22;57049;51.450;-2.516;2023-07-29T04:47:36;15.11;95.41
69776;DHT22;57049;51.450;-2.516;2023-07-29T04:50:02;15.10;95.17
69776;DHT22;57049;51.450;-2.516;2023-07-29T04:52:27;15.12;95.01
69776;DHT22;57049;51.450;-2.516;2023-07-29T04:54:52;15.15;94.18
69776;DHT22;57049;51.450;-2.516;2023-07-29T04:57:18;15.15;94.17
69776;DHT22;57049;51.450;-2.516;2023-07-29T04:59:43;15.14;94.51
69776;DHT22;57049;51.450;-2.516;2023-07-29T05:02:09;15.15;94.27
69776;DHT22;57049;51.450;-2.516;2023-07-29T05:04:34;15.10;94.16
69776;DHT22;57049;51.450;-2.516;2023-07-29T05:07:00;15.04;94.19
69776;DHT22;57049;51.450;-2.516;2023-07-29T05:09:25;15.00;94.25
69776;DHT22;57049;51.450;-2.516;2023-07-29T05:11:51;14.95;94.54
69776;DHT22;57049;51.450;-2.516;2023-07-29T05:14:17;14.91;94.74
69776;DHT22;57049;51.450;-2.516;2023-07-29T05:16:43;14.95;94.72
69776;DHT22;57049;51.450;-2.516;2023-07-29T05:19:09;14.97;94.92
69776;DHT22;57049;51.450;-2.516;2023-07-29T05:21:35;15.01;94.93
69776;DHT22;57049;51.450;-2.516;2023-07-29T05:24:00;15.05;94.60
69776;DHT22;57049;51.450;-2.516;2023-07-29T05:26:26;15.08;94.75
69776;DHT22;57049;51.450;-2.516;2023-07-29T05:28:51;15.18;94.64
69776;DHT22;57049;51.450;-2.516;2023-07-29T05:31:17;15.25;94.56
69776;DHT22;57049;51.450;-2.516;2023-07-29T05:33:43;15.35;94.27
69776;DHT22;57049;51.450;-2.516;2023-07-29T05:36:11;15.51;94.06
69776;DHT22;57049;51.450;-2.516;2023-07-29T05:38:36;15.76;93.69
69776;DHT22;57049;51.450;-2.516;2023-07-29T05:41:02;15.97;93.31
69776;DHT22;57049;51.450;-2.516;2023-07-29T05:43:27;16.20;92.85
69776;DHT22;57049;51.450;-2.516;2023-07-29T05:45:53;16.46;92.12
69776;DHT22;57049;51.450;-2.516;2023-07-29T05:48:19;16.54;91.72
69776;DHT22;57049;51.450;-2.516;2023-07-29T05:50:45;16.44;91.25
69776;DHT22;57049;51.450;-2.516;2023-07-29T05:53:10;16.48;91.40
69776;DHT22;57049;51.450;-2.516;2023-07-29T05:55:36;16.54;91.34
69776;DHT22;57049;51.450;-2.516;2023-07-29T05:58:01;16.57;90.89
69776;DHT22;57049;51.450;-2.516;2023-07-29T06:00:27;16.53;90.78
69776;DHT22;57049;51.450;-2.516;2023-07-29T06:02:52;16.68;91.07
69776;DHT22;57049;51.450;-2.516;2023-07-29T06:05:18;16.63;90.72
69776;DHT22;57049;51.450;-2.516;2023-07-29T06:07:43;16.61;90.96
69776;DHT22;57049;51.450;-2.516;2023-07-29T06:10:12;16.50;91.01
69776;DHT22;57049;51.450;-2.516;2023-07-29T06:12:38;16.40;91.09
69776;DHT22;57049;51.450;-2.516;2023-07-29T06:15:05;16.34;90.70
69776;DHT22;57049;51.450;-2.516;2023-07-29T06:17:30;16.33;91.02
69776;DHT22;57049;51.450;-2.516;2023-07-29T06:19:56;16.36;90.37
69776;DHT22;57049;51.450;-2.516;2023-07-29T06:22:21;16.85;89.42
69776;DHT22;57049;51.450;-2.516;2023-07-29T06:24:47;16.96;88.76
69776;DHT22;57049;51.450;-2.516;2023-07-29T06:27:12;17.52;87.76
69776;DHT22;57049;51.450;-2.516;2023-07-29T06:29:38;18.96;85.14
69776;DHT22;57049;51.450;-2.516;2023-07-29T06:32:04;20.22;80.63
69776;DHT22;57049;51.450;-2.516;2023-07-29T06:34:29;21.61;75.93
69776;DHT22;57049;51.450;-2.516;2023-07-29T06:36:55;22.83;71.68
69776;DHT22;57049;51.450;-2.516;2023-07-29T06:39:20;22.56;70.32
69776;DHT22;57049;51.450;-2.516;2023-07-29T06:41:45;21.47;71.94
69776;DHT22;57049;51.450;-2.516;2023-07-29T06:44:11;20.59;74.08
69776;DHT22;57049;51.450;-2.516;2023-07-29T06:46:36;19.67;76.98
69776;DHT22;57049;51.450;-2.516;2023-07-29T06:49:02;19.17;78.84
69776;DHT22;57049;51.450;-2.516;2023-07-29T06:51:27;18.77;80.47
69776;DHT22;57049;51.450;-2.516;2023-07-29T06:53:57;18.42;81.33
69776;DHT22;57049;51.450;-2.516;2023-07-29T06:56:23;18.31;82.18
69776;DHT22;57049;51.450;-2.516;2023-07-29T06:58:48;18.18;82.71
69776;DHT22;57049;51.450;-2.516;2023-07-29T07:01:14;17.96;83.38
69776;DHT22;57049;51.450;-2.516;2023-07-29T07:03:42;17.86;83.70
69776;DHT22;57049;51.450;-2.516;2023-07-29T07:06:08;17.90;83.48
69776;DHT22;57049;51.450;-2.516;2023-07-29T07:08:34;17.81;83.93
69776;DHT22;57049;51.450;-2.516;2023-07-29T07:10:59;19.38;81.20
69776;DHT22;57049;51.450;-2.516;2023-07-29T07:13:25;20.39;77.36
69776;DHT22;57049;51.450;-2.516;2023-07-29T07:15:50;21.34;73.85
69776;DHT22;57049;51.450;-2.516;2023-07-29T07:18:19;22.47;72.04
69776;DHT22;57049;51.450;-2.516;2023-07-29T07:20:48;21.82;70.81
69776;DHT22;57049;51.450;-2.516;2023-07-29T07:23:15;22.28;71.08
69776;DHT22;57049;51.450;-2.516;2023-07-29T07:25:41;22.83;69.24
69776;DHT22;57049;51.450;-2.516;2023-07-29T07:28:08;22.32;69.99
69776;DHT22;57049;51.450;-2.516;2023-07-29T07:30:33;21.98;70.35
69776;DHT22;57049;51.450;-2.516;2023-07-29T07:32:58;21.81;71.56
69776;DHT22;57049;51.450;-2.516;2023-07-29T07:35:24;22.78;70.19
69776;DHT22;57049;51.450;-2.516;2023-07-29T07:37:49;22.95;68.51
69776;DHT22;57049;51.450;-2.516;2023-07-29T07:40:15;21.96;69.83
69776;DHT22;57049;51.450;-2.516;2023-07-29T07:42:40;21.24;72.60
69776;DHT22;57049;51.450;-2.516;2023-07-29T07:45:06;21.06;73.66
69776;DHT22;57049;51.450;-2.516;2023-07-29T07:47:31;20.60;74.93
69776;DHT22;57049;51.450;-2.516;2023-07-29T07:49:57;20.35;75.29
69776;DHT22;57049;51.450;-2.516;2023-07-29T07:52:22;20.43;75.55
69776;DHT22;57049;51.450;-2.516;2023-07-29T07:54:52;20.24;75.81
69776;DHT22;57049;51.450;-2.516;2023-07-29T07:57:20;19.84;75.96
69776;DHT22;57049;51.450;-2.516;2023-07-29T07:59:45;19.64;77.30
69776;DHT22;57049;51.450;-2.516;2023-07-29T08:02:11;19.94;77.86
69776;DHT22;57049;51.450;-2.516;2023-07-29T08:04:36;21.00;74.60
69776;DHT22;57049;51.450;-2.516;2023-07-29T08:07:02;21.03;73.40
69776;DHT22;57049;51.450;-2.516;2023-07-29T08:09:27;20.80;73.37
69776;DHT22;57049;51.450;-2.516;2023-07-29T08:11:53;20.62;73.29
69776;DHT22;57049;51.450;-2.516;2023-07-29T08:14:18;22.01;71.98
69776;DHT22;57049;51.450;-2.516;2023-07-29T08:16:44;23.21;67.42
69776;DHT22;57049;51.450;-2.516;2023-07-29T08:19:09;24.44;65.00
69776;DHT22;57049;51.450;-2.516;2023-07-29T08:21:35;25.54;62.07
69776;DHT22;57049;51.450;-2.516;2023-07-29T08:24:01;26.34;60.99
69776;DHT22;57049;51.450;-2.516;2023-07-29T08:26:27;25.43;60.10
69776;DHT22;57049;51.450;-2.516;2023-07-29T08:28:52;24.00;63.51
69776;DHT22;57049;51.450;-2.516;2023-07-29T08:31:18;22.98;66.25
69776;DHT22;57049;51.450;-2.516;2023-07-29T08:33:43;21.93;68.94
69776;DHT22;57049;51.450;-2.516;2023-07-29T08:36:09;21.04;70.89
69776;DHT22;57049;51.450;-2.516;2023-07-29T08:38:34;20.50;73.17
69776;DHT22;57049;51.450;-2.516;2023-07-29T08:41:16;20.18;73.23
69776;DHT22;57049;51.450;-2.516;2023-07-29T08:43:52;20.36;72.81
69776;DHT22;57049;51.450;-2.516;2023-07-29T08:46:21;20.39;72.81
69776;DHT22;57049;51.450;-2.516;2023-07-29T08:48:47;20.19;73.57
69776;DHT22;57049;51.450;-2.516;2023-07-29T08:51:15;20.08;73.82
69776;DHT22;57049;51.450;-2.516;2023-07-29T08:53:42;21.34;71.69
69776;DHT22;57049;51.450;-2.516;2023-07-29T08:56:08;20.60;72.36
69776;DHT22;57049;51.450;-2.516;2023-07-29T08:58:34;20.39;73.21
69776;DHT22;57049;51.450;-2.516;2023-07-29T09:01:03;20.11;74.39
69776;DHT22;57049;51.450;-2.516;2023-07-29T09:03:29;20.84;72.57
69776;DHT22;57049;51.450;-2.516;2023-07-29T09:05:55;20.80;72.27
69776;DHT22;57049;51.450;-2.516;2023-07-29T09:08:23;21.27;68.51
69776;DHT22;57049;51.450;-2.516;2023-07-29T09:10:49;22.91;66.06
69776;DHT22;57049;51.450;-2.516;2023-07-29T09:13:14;23.61;62.74
69776;DHT22;57049;51.450;-2.516;2023-07-29T09:15:40;23.03;63.53
69776;DHT22;57049;51.450;-2.516;2023-07-29T09:18:19;22.20;65.66
69776;DHT22;57049;51.450;-2.516;2023-07-29T09:20:48;21.42;67.66
69776;DHT22;57049;51.450;-2.516;2023-07-29T09:23:14;21.38;69.42
69776;DHT22;57049;51.450;-2.516;2023-07-29T09:25:40;22.67;68.05
69776;DHT22;57049;51.450;-2.516;2023-07-29T09:28:11;22.74;66.57
69776;DHT22;57049;51.450;-2.516;2023-07-29T09:30:41;22.19;64.80
69776;DHT22;57049;51.450;-2.516;2023-07-29T09:33:08;21.69;66.40
69776;DHT22;57049;51.450;-2.516;2023-07-29T09:35:36;20.99;67.92
69776;DHT22;57049;51.450;-2.516;2023-07-29T09:38:05;21.04;69.35
69776;DHT22;57049;51.450;-2.516;2023-07-29T09:40:39;20.84;69.42
69776;DHT22;57049;51.450;-2.516;2023-07-29T09:43:05;20.59;70.30
69776;DHT22;57049;51.450;-2.516;2023-07-29T09:45:33;20.35;70.61
69776;DHT22;57049;51.450;-2.516;2023-07-29T09:47:59;19.97;72.36
69776;DHT22;57049;51.450;-2.516;2023-07-29T09:50:25;20.62;71.75
69776;DHT22;57049;51.450;-2.516;2023-07-29T09:52:52;21.21;71.11
69776;DHT22;57049;51.450;-2.516;2023-07-29T09:55:19;21.71;69.46
69776;DHT22;57049;51.450;-2.516;2023-07-29T09:57:46;21.72;69.05
69776;DHT22;57049;51.450;-2.516;2023-07-29T10:00:12;21.79;67.92
69776;DHT22;57049;51.450;-2.516;2023-07-29T10:02:39;21.78;66.51
69776;DHT22;57049;51.450;-2.516;2023-07-29T10:05:06;20.93;67.85
69776;DHT22;57049;51.450;-2.516;2023-07-29T10:07:33;20.72;68.01
69776;DHT22;57049;51.450;-2.516;2023-07-29T10:10:01;20.93;68.79
69776;DHT22;57049;51.450;-2.516;2023-07-29T10:12:27;20.83;68.35
69776;DHT22;57049;51.450;-2.516;2023-07-29T10:14:54;20.63;66.83
69776;DHT22;57049;51.450;-2.516;2023-07-29T10:17:23;20.73;68.54
69776;DHT22;57049;51.450;-2.516;2023-07-29T10:19:49;20.59;68.98
69776;DHT22;57049;51.450;-2.516;2023-07-29T10:22:17;20.53;69.58
69776;DHT22;57049;51.450;-2.516;2023-07-29T10:24:45;20.69;71.75
69776;DHT22;57049;51.450;-2.516;2023-07-29T10:27:14;21.11;69.48
69776;DHT22;57049;51.450;-2.516;2023-07-29T10:29:43;21.62;68.51
69776;DHT22;57049;51.450;-2.516;2023-07-29T10:32:11;21.85;65.75
69776;DHT22;57049;51.450;-2.516;2023-07-29T10:34:37;21.07;65.85
69776;DHT22;57049;51.450;-2.516;2023-07-29T10:37:04;20.77;67.42
69776;DHT22;57049;51.450;-2.516;2023-07-29T10:39:39;20.46;68.97
69776;DHT22;57049;51.450;-2.516;2023-07-29T10:42:06;20.90;68.98
69776;DHT22;57049;51.450;-2.516;2023-07-29T10:47:12;20.57;65.24
69776;DHT22;57049;51.450;-2.516;2023-07-29T10:49:41;20.79;66.90
69776;DHT22;57049;51.450;-2.516;2023-07-29T10:52:07;20.87;67.99
69776;DHT22;57049;51.450;-2.516;2023-07-29T10:54:46;20.83;66.96
69776;DHT22;57049;51.450;-2.516;2023-07-29T10:57:13;20.75;67.77
69776;DHT22;57049;51.450;-2.516;2023-07-29T10:59:40;20.89;68.85
69776;DHT22;57049;51.450;-2.516;2023-07-29T11:02:15;21.31;67.78
69776;DHT22;57049;51.450;-2.516;2023-07-29T11:04:51;21.58;66.07
69776;DHT22;57049;51.450;-2.516;2023-07-29T11:15:03;21.03;66.27
69776;DHT22;57049;51.450;-2.516;2023-07-29T11:17:30;21.27;69.85
69776;DHT22;57049;51.450;-2.516;2023-07-29T11:20:00;21.65;69.06
69776;DHT22;57049;51.450;-2.516;2023-07-29T11:22:26;21.48;65.70
69776;DHT22;57049;51.450;-2.516;2023-07-29T11:24:51;20.94;65.68
69776;DHT22;57049;51.450;-2.516;2023-07-29T11:27:17;20.84;68.08
69776;DHT22;57049;51.450;-2.516;2023-07-29T11:29:43;21.06;67.81
69776;DHT22;57049;51.450;-2.516;2023-07-29T11:32:09;21.18;66.76
69776;DHT22;57049;51.450;-2.516;2023-07-29T11:34:35;21.28;65.49
69776;DHT22;57049;51.450;-2.516;2023-07-29T11:37:01;20.86;64.64
69776;DHT22;57049;51.450;-2.516;2023-07-29T11:39:26;20.83;64.23
69776;DHT22;57049;51.450;-2.516;2023-07-29T11:41:52;20.80;64.46
69776;DHT22;57049;51.450;-2.516;2023-07-29T11:44:18;20.75;63.84
69776;DHT22;57049;51.450;-2.516;2023-07-29T11:46:43;20.66;63.27
69776;DHT22;57049;51.450;-2.516;2023-07-29T11:49:10;20.73;65.24
69776;DHT22;57049;51.450;-2.516;2023-07-29T11:51:36;20.90;65.64
69776;DHT22;57049;51.450;-2.516;2023-07-29T11:54:02;20.97;62.96
69776;DHT22;57049;51.450;-2.516;2023-07-29T11:56:29;20.90;60.33
69776;DHT22;57049;51.450;-2.516;2023-07-29T11:58:55;20.96;58.83
69776;DHT22;57049;51.450;-2.516;2023-07-29T12:01:22;20.65;61.09
69776;DHT22;57049;51.450;-2.516;2023-07-29T12:03:49;20.72;60.07
69776;DHT22;57049;51.450;-2.516;2023-07-29T12:06:15;20.89;59.53
69776;DHT22;57049;51.450;-2.516;2023-07-29T12:08:42;21.04;58.27
69776;DHT22;57049;51.450;-2.516;2023-07-29T12:11:08;20.79;59.57
69776;DHT22;57049;51.450;-2.516;2023-07-29T12:13:36;20.89;60.43
69776;DHT22;57049;51.450;-2.516;2023-07-29T12:16:02;21.10;61.13
69776;DHT22;57049;51.450;-2.516;2023-07-29T12:18:32;21.21;59.82
69776;DHT22;57049;51.450;-2.516;2023-07-29T12:20:58;21.50;60.04
69776;DHT22;57049;51.450;-2.516;2023-07-29T12:23:25;21.59;61.72
69776;DHT22;57049;51.450;-2.516;2023-07-29T12:25:57;21.63;57.74
69776;DHT22;57049;51.450;-2.516;2023-07-29T12:28:36;21.42;57.04
69776;DHT22;57049;51.450;-2.516;2023-07-29T12:31:01;21.10;56.83
69776;DHT22;57049;51.450;-2.516;2023-07-29T12:33:34;21.11;58.05
69776;DHT22;57049;51.450;-2.516;2023-07-29T12:36:01;21.50;59.31
69776;DHT22;57049;51.450;-2.516;2023-07-29T12:38:27;21.69;58.05
69776;DHT22;57049;51.450;-2.516;2023-07-29T12:40:53;21.77;58.93
69776;DHT22;57049;51.450;-2.516;2023-07-29T12:43:18;22.14;57.62
69776;DHT22;57049;51.450;-2.516;2023-07-29T12:45:44;22.65;59.91
69776;DHT22;57049;51.450;-2.516;2023-07-29T12:48:10;23.05;58.99
69776;DHT22;57049;51.450;-2.516;2023-07-29T12:50:36;23.10;57.62
69776;DHT22;57049;51.450;-2.516;2023-07-29T12:53:02;22.44;56.31
69776;DHT22;57049;51.450;-2.516;2023-07-29T12:55:30;22.22;59.44
69776;DHT22;57049;51.450;-2.516;2023-07-29T12:57:55;22.10;58.30
69776;DHT22;57049;51.450;-2.516;2023-07-29T13:00:23;22.59;60.53
69776;DHT22;57049;51.450;-2.516;2023-07-29T13:02:48;22.52;59.17
69776;DHT22;57049;51.450;-2.516;2023-07-29T13:05:14;22.14;59.07
69776;DHT22;57049;51.450;-2.516;2023-07-29T13:07:40;21.34;60.00
69776;DHT22;57049;51.450;-2.516;2023-07-29T13:10:09;21.44;60.08
69776;DHT22;57049;51.450;-2.516;2023-07-29T13:12:37;21.74;60.44
69776;DHT22;57049;51.450;-2.516;2023-07-29T13:15:04;21.79;59.43
69776;DHT22;57049;51.450;-2.516;2023-07-29T13:17:29;21.93;61.21
69776;DHT22;57049;51.450;-2.516;2023-07-29T13:19:55;21.71;61.70
69776;DHT22;57049;51.450;-2.516;2023-07-29T13:22:21;21.93;62.10
69776;DHT22;57049;51.450;-2.516;2023-07-29T13:24:46;21.66;62.75
69776;DHT22;57049;51.450;-2.516;2023-07-29T13:27:12;21.71;64.79
69776;DHT22;57049;51.450;-2.516;2023-07-29T13:29:38;21.58;64.98
69776;DHT22;57049;51.450;-2.516;2023-07-29T13:39:15;21.00;64.62
69776;DHT22;57049;51.450;-2.516;2023-07-29T13:41:40;20.80;64.97
69776;DHT22;57049;51.450;-2.516;2023-07-29T13:44:06;20.77;64.20
69776;DHT22;57049;51.450;-2.516;2023-07-29T13:46:31;20.87;65.08
69776;DHT22;57049;51.450;-2.516;2023-07-29T13:48:57;20.96;64.54
69776;DHT22;57049;51.450;-2.516;2023-07-29T13:51:23;20.76;64.27
69776;DHT22;57049;51.450;-2.516;2023-07-29T13:53:48;20.73;65.61
69776;DHT22;57049;51.450;-2.516;2023-07-29T13:56:14;21.07;65.55
69776;DHT22;57049;51.450;-2.516;2023-07-29T13:58:40;21.91;65.00
69776;DHT22;57049;51.450;-2.516;2023-07-29T14:01:05;22.02;63.81
69776;DHT22;57049;51.450;-2.516;2023-07-29T14:03:31;21.83;65.71
69776;DHT22;57049;51.450;-2.516;2023-07-29T14:05:56;21.72;65.83
69776;DHT22;57049;51.450;-2.516;2023-07-29T14:08:22;21.24;67.13
69776;DHT22;57049;51.450;-2.516;2023-07-29T14:10:51;21.40;68.08
69776;DHT22;57049;51.450;-2.516;2023-07-29T14:13:16;21.93;67.33
69776;DHT22;57049;51.450;-2.516;2023-07-29T14:15:42;21.81;66.28
69776;DHT22;57049;51.450;-2.516;2023-07-29T14:18:07;21.81;67.15
69776;DHT22;57049;51.450;-2.516;2023-07-29T14:20:33;21.57;66.63
69776;DHT22;57049;51.450;-2.516;2023-07-29T14:22:59;21.92;66.92
69776;DHT22;57049;51.450;-2.516;2023-07-29T14:25:24;22.02;64.55
69776;DHT22;57049;51.450;-2.516;2023-07-29T14:27:50;21.66;64.30
69776;DHT22;57049;51.450;-2.516;2023-07-29T14:30:16;21.92;64.40
69776;DHT22;57049;51.450;-2.516;2023-07-29T14:32:41;22.29;63.01
69776;DHT22;57049;51.450;-2.516;2023-07-29T14:35:07;22.12;60.60
69776;DHT22;57049;51.450;-2.516;2023-07-29T14:37:34;22.13;60.12
69776;DHT22;57049;51.450;-2.516;2023-07-29T14:40:00;22.30;60.80
69776;DHT22;57049;51.450;-2.516;2023-07-29T14:42:27;22.22;60.02
69776;DHT22;57049;51.450;-2.516;2023-07-29T14:44:53;22.12;61.75
69776;DHT22;57049;51.450;-2.516;2023-07-29T14:47:19;22.42;62.64
69776;DHT22;57049;51.450;-2.516;2023-07-29T14:49:44;21.96;60.57
69776;DHT22;57049;51.450;-2.516;2023-07-29T14:52:10;21.95;62.11
69776;DHT22;57049;51.450;-2.516;2023-07-29T14:54:36;22.14;62.74
69776;DHT22;57049;51.450;-2.516;2023-07-29T14:57:02;22.13;62.80
69776;DHT22;57049;51.450;-2.516;2023-07-29T14:59:28;22.03;62.29
69776;DHT22;57049;51.450;-2.516;2023-07-29T15:01:53;21.81;61.05
69776;DHT22;57049;51.450;-2.516;2023-07-29T15:04:19;21.47;59.02
69776;DHT22;57049;51.450;-2.516;2023-07-29T15:06:44;21.47;59.35
69776;DHT22;57049;51.450;-2.516;2023-07-29T15:09:11;21.66;60.85
69776;DHT22;57049;51.450;-2.516;2023-07-29T15:11:36;22.12;59.65
69776;DHT22;57049;51.450;-2.516;2023-07-29T15:14:02;22.20;60.09
69776;DHT22;57049;51.450;-2.516;2023-07-29T15:16:31;22.68;61.23
69776;DHT22;57049;51.450;-2.516;2023-07-29T15:18:59;22.43;60.45
69776;DHT22;57049;51.450;-2.516;2023-07-29T15:21:24;22.26;60.89
69776;DHT22;57049;51.450;-2.516;2023-07-29T15:23:49;22.40;59.89
69776;DHT22;57049;51.450;-2.516;2023-07-29T15:26:15;22.29;60.44
69776;DHT22;57049;51.450;-2.516;2023-07-29T15:28:40;22.12;58.57
69776;DHT22;57049;51.450;-2.516;2023-07-29T15:31:06;22.14;59.36
69776;DHT22;57049;51.450;-2.516;2023-07-29T15:33:31;21.96;60.11
69776;DHT22;57049;51.450;-2.516;2023-07-29T15:35:59;21.89;60.98
69776;DHT22;57049;51.450;-2.516;2023-07-29T15:38:25;21.65;61.33
69776;DHT22;57049;51.450;-2.516;2023-07-29T15:40:51;21.83;61.20